Time;durP1;ratioP1;P1;durP2;ratioP2;P2;SDS_P1;SDS_P2;PMS_P1;PMS_P2;Temp;Humidity;BMP_temperature;BMP_pressure;BME280_temperature;BME280_humidity;BME280_pressure;Samples;Min_cycle;Max_cycle;Signal;HPM_P1;HPM_P2
2022/11/19 00:00:21;;;;;;;;;;;;;;;14.36;69.56;100549.06;1253518;23;666;-77
2022/11/19 00:01:12;;;;;;;;;;;;;;;14.35;69.28;100554.56;1254885;23;689;-76
2022/11/19 00:02:02;;;;;;;;;;;;;;;14.36;69.39;100554.41;1252019;23;627;-77
2022/11/19 00:02:53;;;;;;;;;;;;;;;14.37;69.35;100558.81;1252694;23;565;-76
2022/11/19 00:03:43;;;;;;;;;;;;;;;14.36;69.41;100559.78;1261500;23;1349;-77
2022/11/19 00:04:33;;;;;;;;;;;;;;;14.38;69.01;100554.28;1260782;23;642;-77
2022/11/19 00:05:24;;;;;;;;;;;;;;;14.37;69.40;100564.16;1261520;23;618;-77
2022/11/19 00:06:14;;;;;;;;;;;;;;;14.36;69.49;100561.63;1267137;23;698;-77
2022/11/19 00:07:05;;;;;;;;;;;;;;;14.38;69.62;100562.34;1265627;23;661;-76
2022/11/19 00:07:55;;;;;;;;;;;;;;;14.36;69.24;100561.63;1265450;23;603;-77
2022/11/19 00:08:46;;;;;;;;;;;;;;;14.35;69.40;100565.28;1265519;23;653;-76
2022/11/19 00:09:36;;;;;;;;;;;;;;;14.30;69.75;100557.66;1265354;23;586;-76
2022/11/19 00:10:26;;;;;;;;;;;;;;;14.36;69.45;100562.47;1265514;23;669;-77
2022/11/19 00:12:53;;;;;;;;;;;;;;;14.31;69.48;100559.34;1265521;23;665;-76
2022/11/19 00:13:39;;;;;;;;;;;;;;;14.31;69.15;100563.84;1268067;23;640;-76
2022/11/19 00:14:30;;;;;;;;;;;;;;;14.30;69.78;100570.19;1265615;23;637;-77
2022/11/19 00:15:20;;;;;;;;;;;;;;;14.31;69.64;100569.22;1265322;23;638;-76
2022/11/19 00:16:10;;;;;;;;;;;;;;;14.33;69.04;100572.63;1265451;23;685;-77
2022/11/19 00:17:01;;;;;;;;;;;;;;;14.30;69.62;100573.72;1267130;23;621;-76
2022/11/19 00:17:51;;;;;;;;;;;;;;;14.30;69.20;100563.00;1260687;23;642;-76
2022/11/19 00:18:42;;;;;;;;;;;;;;;14.30;69.31;100567.53;1261520;23;661;-76
2022/11/19 00:19:32;;;;;;;;;;;;;;;14.35;68.75;100570.63;1267015;23;630;-76
2022/11/19 00:20:23;;;;;;;;;;;;;;;14.35;68.77;100568.81;1265475;23;704;-76
2022/11/19 00:21:13;;;;;;;;;;;;;;;14.32;68.88;100566.41;1265412;23;603;-77
2022/11/19 00:22:03;;;;;;;;;;;;;;;14.33;68.89;100569.94;1265472;23;791;-76
2022/11/19 00:22:55;;;;;;;;;;;;;;;14.35;68.82;100565.28;1265791;23;634;-76
2022/11/19 00:23:46;;;;;;;;;;;;;;;14.35;68.82;100565.28;1264870;23;662;-77
2022/11/19 00:24:36;;;;;;;;;;;;;;;14.31;69.29;100570.06;1265383;23;654;-77
2022/11/19 00:25:27;;;;;;;;;;;;;;;14.30;68.82;100564.84;1265658;23;610;-76
2022/11/19 00:26:17;;;;;;;;;;;;;;;14.30;68.73;100564.84;1265387;23;655;-77
2022/11/19 00:27:08;;;;;;;;;;;;;;;14.30;69.35;100572.88;1260765;23;634;-76
2022/11/19 00:27:58;;;;;;;;;;;;;;;14.31;69.19;100577.25;1261547;23;610;-76
2022/11/19 00:28:48;;;;;;;;;;;;;;;14.29;69.33;100573.84;1267001;23;569;-77
2022/11/19 00:29:39;;;;;;;;;;;;;;;14.31;69.24;100574.59;1265704;23;666;-77
2022/11/19 00:30:29;;;;;;;;;;;;;;;14.29;69.08;100566.66;1267157;23;638;-77
2022/11/19 00:31:20;;;;;;;;;;;;;;;14.30;69.14;100575.56;1260746;23;689;-77
2022/11/19 00:32:10;;;;;;;;;;;;;;;14.25;68.86;100574.13;1261669;23;614;-78
2022/11/19 00:33:01;;;;;;;;;;;;;;;14.25;68.94;100567.91;1267012;23;740;-77
2022/11/19 00:33:53;;;;;;;;;;;;;;;14.23;69.17;100578.75;1267023;23;585;-77
2022/11/19 00:34:43;;;;;;;;;;;;;;;14.27;69.01;100575.81;1266175;23;646;-75
2022/11/19 00:35:34;;;;;;;;;;;;;;;14.24;69.18;100580.44;1266135;23;623;-76
2022/11/19 00:36:24;;;;;;;;;;;;;;;14.24;69.08;100577.78;1265701;23;619;-76
2022/11/19 00:37:15;;;;;;;;;;;;;;;14.24;68.77;100580.44;1265925;23;697;-77
2022/11/19 00:38:05;;;;;;;;;;;;;;;14.22;68.81;100582.41;1265761;23;589;-76
2022/11/19 00:38:55;;;;;;;;;;;;;;;14.21;68.88;100574.50;1267546;23;641;-76
2022/11/19 00:39:46;;;;;;;;;;;;;;;14.21;68.78;100579.84;1266001;23;662;-77
2022/11/19 00:40:36;;;;;;;;;;;;;;;14.22;69.05;100574.38;1265856;23;618;-77
2022/11/19 00:41:27;;;;;;;;;;;;;;;14.21;68.96;100578.03;1265890;23;643;-77
2022/11/19 00:42:17;;;;;;;;;;;;;;;14.23;68.60;100581.44;1265786;23;615;-77
2022/11/19 00:44:17;;;;;;;;;;;;;;;14.23;68.91;100581.44;1268302;23;653;-77
2022/11/19 00:45:07;;;;;;;;;;;;;;;14.27;68.88;100589.22;1261055;23;595;-77
2022/11/19 00:45:58;;;;;;;;;;;;;;;14.24;68.95;100588.50;1261967;23;630;-77
2022/11/19 00:46:48;;;;;;;;;;;;;;;14.25;69.04;100592.03;1267490;23;619;-76
2022/11/19 00:47:38;;;;;;;;;;;;;;;14.27;68.99;100589.22;1265663;23;1881;-77
2022/11/19 00:48:29;;;;;;;;;;;;;;;14.21;68.53;100596.78;1266025;23;669;-76
2022/11/19 00:49:19;;;;;;;;;;;;;;;14.21;68.59;100591.41;1265731;23;665;-76
2022/11/19 00:50:10;;;;;;;;;;;;;;;14.22;69.00;100586.91;1266002;23;721;-76
2022/11/19 00:51:00;;;;;;;;;;;;;;;14.22;69.05;100598.47;1266600;23;641;-74
2022/11/19 00:51:50;;;;;;;;;;;;;;;14.24;68.98;100596.53;1265821;23;539;-76
2022/11/19 00:52:41;;;;;;;;;;;;;;;14.23;68.89;100596.66;1265861;23;677;-75
2022/11/19 00:53:31;;;;;;;;;;;;;;;14.21;68.52;100612.88;1261244;23;630;-76
2022/11/19 00:54:22;;;;;;;;;;;;;;;14.21;68.85;100602.16;1262019;23;662;-76
2022/11/19 00:55:12;;;;;;;;;;;;;;;14.19;69.03;100609.47;1268368;23;635;-76
2022/11/19 00:56:03;;;;;;;;;;;;;;;14.22;68.63;100603.84;1265802;23;702;-76
2022/11/19 00:56:53;;;;;;;;;;;;;;;14.25;68.50;100608.97;1266484;23;559;-75
2022/11/19 00:57:43;;;;;;;;;;;;;;;14.20;69.17;100605.81;1265821;23;594;-76
2022/11/19 00:58:34;;;;;;;;;;;;;;;14.20;68.84;100604.94;1265894;23;693;-76
2022/11/19 00:59:24;;;;;;;;;;;;;;;14.17;69.17;100605.19;1265715;23;646;-76
2022/11/19 01:00:15;;;;;;;;;;;;;;;14.22;68.72;100608.34;1265748;23;638;-75
2022/11/19 01:01:05;;;;;;;;;;;;;;;14.22;69.23;100603.00;1265650;23;678;-75
2022/11/19 01:01:56;;;;;;;;;;;;;;;14.19;68.65;100604.09;1265841;23;643;-75
2022/11/19 01:02:46;;;;;;;;;;;;;;;14.24;68.50;100609.09;1266155;23;622;-75
2022/11/19 01:03:37;;;;;;;;;;;;;;;14.21;68.48;100602.16;1265592;23;1099;-75
2022/11/19 01:04:27;;;;;;;;;;;;;;;14.20;68.99;100611.16;1265783;23;662;-75
2022/11/19 01:05:18;;;;;;;;;;;;;;;14.21;68.59;100612.88;1265894;23;684;-75
2022/11/19 01:06:08;;;;;;;;;;;;;;;14.20;69.11;100616.53;1265637;23;622;-75
2022/11/19 01:06:59;;;;;;;;;;;;;;;14.19;68.59;100613.97;1265849;23;638;-75
2022/11/19 01:07:49;;;;;;;;;;;;;;;14.16;69.03;100619.56;1265645;23;534;-75
2022/11/19 01:08:39;;;;;;;;;;;;;;;14.19;69.39;100619.31;1265959;23;634;-75
2022/11/19 01:09:30;;;;;;;;;;;;;;;14.16;68.53;100619.56;1265988;23;635;-76
2022/11/19 01:10:20;;;;;;;;;;;;;;;14.17;68.73;100624.81;1265678;23;618;-76
2022/11/19 01:11:11;;;;;;;;;;;;;;;14.17;69.20;100621.28;1265258;23;650;-76
2022/11/19 01:12:01;;;;;;;;;;;;;;;14.21;68.93;100628.94;1265604;23;760;-76
2022/11/19 01:14:00;;;;;;;;;;;;;;;14.21;68.97;100628.09;1261990;23;630;-77
2022/11/19 01:14:51;;;;;;;;;;;;;;;14.20;68.57;100621.03;1267471;23;692;-76
2022/11/19 01:15:41;;;;;;;;;;;;;;;14.21;68.84;100628.94;1265572;23;595;-77
2022/11/19 01:16:32;;;;;;;;;;;;;;;14.19;68.99;100632.72;1265682;23;571;-77
2022/11/19 01:17:22;;;;;;;;;;;;;;;14.18;68.73;100634.56;1264968;23;575;-76
2022/11/19 01:18:13;;;;;;;;;;;;;;;14.16;68.77;100624.94;1265931;23;559;-77
2022/11/19 01:19:03;;;;;;;;;;;;;;;14.17;68.66;100630.16;1265505;23;658;-77
2022/11/19 01:19:54;;;;;;;;;;;;;;;14.15;69.25;100625.94;1265905;23;626;-77
2022/11/19 01:20:44;;;;;;;;;;;;;;;14.13;68.86;100626.06;1265699;23;761;-76
2022/11/19 01:21:35;;;;;;;;;;;;;;;14.13;68.95;100630.59;1266035;23;622;-76
2022/11/19 01:22:25;;;;;;;;;;;;;;;14.10;68.93;100637.03;1265657;23;666;-77
2022/11/19 01:23:16;;;;;;;;;;;;;;;14.09;68.75;100639.84;1265835;23;645;-77
2022/11/19 01:24:06;;;;;;;;;;;;;;;14.10;69.32;100629.00;1265690;23;642;-77
2022/11/19 01:24:56;;;;;;;;;;;;;;;14.12;69.10;100635.09;1265747;23;642;-78
2022/11/19 01:25:47;;;;;;;;;;;;;;;14.14;68.87;100637.66;1266074;23;674;-76
2022/11/19 01:26:37;;;;;;;;;;;;;;;14.15;68.77;100634.81;1265646;23;626;-76
2022/11/19 01:27:28;;;;;;;;;;;;;;;14.14;68.83;100638.50;1265818;23;1897;-76
2022/11/19 01:28:18;;;;;;;;;;;;;;;14.13;68.88;100636.78;1265514;23;669;-76
2022/11/19 01:29:09;;;;;;;;;;;;;;;14.16;68.74;100646.38;1265180;23;654;-77
2022/11/19 01:29:59;;;;;;;;;;;;;;;14.17;68.86;100638.22;1265669;23;627;-76
2022/11/19 01:30:50;;;;;;;;;;;;;;;14.16;68.63;100635.66;1265903;23;697;-74
2022/11/19 01:31:40;;;;;;;;;;;;;;;14.15;68.79;100640.16;1266508;23;697;-75
2022/11/19 01:32:31;;;;;;;;;;;;;;;14.14;68.70;100638.50;1260906;23;689;-76
2022/11/19 01:33:22;;;;;;;;;;;;;;;14.15;68.58;100634.81;1261726;23;759;-76
2022/11/19 01:34:12;;;;;;;;;;;;;;;14.15;69.07;100642.03;1267504;23;677;-76
2022/11/19 01:35:03;;;;;;;;;;;;;;;14.13;68.85;100646.66;1265729;23;554;-74
2022/11/19 01:35:53;;;;;;;;;;;;;;;14.10;69.26;100647.75;1265917;23;604;-75
2022/11/19 01:36:43;;;;;;;;;;;;;;;14.10;68.74;100645.06;1265657;23;619;-76
2022/11/19 01:37:34;;;;;;;;;;;;;;;14.12;68.93;100648.47;1265831;23;669;-76
2022/11/19 01:38:24;;;;;;;;;;;;;;;14.14;69.04;100643.84;1266457;23;725;-76
2022/11/19 01:39:15;;;;;;;;;;;;;;;14.09;68.75;100643.38;1265844;23;670;-76
2022/11/19 01:40:05;;;;;;;;;;;;;;;14.08;69.15;100644.34;1265374;23;626;-76
2022/11/19 01:40:56;;;;;;;;;;;;;;;14.10;69.17;100646.91;1260825;23;548;-76
2022/11/19 01:41:46;;;;;;;;;;;;;;;14.09;68.90;100653.25;1260253;23;674;-77
2022/11/19 01:42:49;;;;;;;;;;;;;;;14.08;69.15;100648.84;1267248;23;672;-76
2022/11/19 01:43:39;;;;;;;;;;;;;;;14.11;68.93;100649.47;1266455;23;692;-76
2022/11/19 01:44:29;;;;;;;;;;;;;;;14.12;68.95;100634.22;1265638;23;638;-77
2022/11/19 01:45:20;;;;;;;;;;;;;;;14.09;68.69;100645.19;1265889;23;622;-76
2022/11/19 01:46:10;;;;;;;;;;;;;;;14.09;68.51;100651.41;1265609;23;603;-77
2022/11/19 01:47:01;;;;;;;;;;;;;;;14.08;68.96;100644.34;1265677;23;658;-76
2022/11/19 01:47:51;;;;;;;;;;;;;;;14.08;69.26;100649.72;1265574;23;610;-76
2022/11/19 01:48:42;;;;;;;;;;;;;;;14.07;69.17;100652.50;1265691;23;598;-76
2022/11/19 01:49:32;;;;;;;;;;;;;;;14.05;68.73;100649.97;1265928;23;673;-75
2022/11/19 01:50:22;;;;;;;;;;;;;;;14.02;68.83;100652.03;1267458;23;610;-76
2022/11/19 01:51:13;;;;;;;;;;;;;;;14.03;68.95;100651.91;1267250;23;621;-77
2022/11/19 01:52:03;;;;;;;;;;;;;;;14.04;69.40;100658.97;1265442;23;677;-76
2022/11/19 01:52:54;;;;;;;;;;;;;;;14.05;69.20;100658.00;1265737;23;661;-76
2022/11/19 01:53:44;;;;;;;;;;;;;;;14.11;68.86;100660.19;1265477;23;591;-75
2022/11/19 01:54:35;;;;;;;;;;;;;;;14.07;68.69;100656.03;1265252;23;653;-75
2022/11/19 01:55:25;;;;;;;;;;;;;;;14.09;68.62;100654.09;1265890;23;622;-75
2022/11/19 01:56:15;;;;;;;;;;;;;;;14.08;68.73;100655.06;1265565;23;654;-75
2022/11/19 01:57:06;;;;;;;;;;;;;;;14.10;69.13;100654.94;1265780;23;654;-76
2022/11/19 01:57:56;;;;;;;;;;;;;;;14.10;68.96;100658.47;1265597;23;619;-75
2022/11/19 01:58:47;;;;;;;;;;;;;;;14.13;69.07;100652.88;1265642;23;728;-76
2022/11/19 01:59:37;;;;;;;;;;;;;;;14.07;68.92;100656.03;1266537;23;692;-76
2022/11/19 02:00:28;;;;;;;;;;;;;;;14.11;69.08;100653.97;1265471;23;634;-76
2022/11/19 02:01:18;;;;;;;;;;;;;;;14.08;69.28;100660.44;1265880;23;677;-76
2022/11/19 02:02:08;;;;;;;;;;;;;;;14.12;69.16;100661.88;1260932;23;634;-76
2022/11/19 02:02:59;;;;;;;;;;;;;;;14.08;69.15;100660.44;1261785;23;672;-76
2022/11/19 02:03:50;;;;;;;;;;;;;;;14.05;69.23;100654.47;1267127;23;1104;-76
2022/11/19 02:04:40;;;;;;;;;;;;;;;14.04;69.16;100664.31;1260916;23;646;-76
2022/11/19 02:05:31;;;;;;;;;;;;;;;14.02;69.32;100670.78;1261786;23;562;-76
2022/11/19 02:06:21;;;;;;;;;;;;;;;14.01;68.81;100664.56;1267258;23;613;-76
2022/11/19 02:07:12;;;;;;;;;;;;;;;13.99;69.46;100671.88;1265681;23;611;-76
2022/11/19 02:08:02;;;;;;;;;;;;;;;14.01;69.14;100675.28;1265812;23;626;-76
2022/11/19 02:08:53;;;;;;;;;;;;;;;14.00;68.89;100678.09;1264963;23;606;-75
2022/11/19 02:09:43;;;;;;;;;;;;;;;14.02;69.18;100671.63;1266517;23;673;-75
2022/11/19 02:10:33;;;;;;;;;;;;;;;14.00;69.15;100673.59;1265537;23;722;-76
2022/11/19 02:11:24;;;;;;;;;;;;;;;14.04;69.11;100680.41;1265748;23;603;-76
2022/11/19 02:12:14;;;;;;;;;;;;;;;14.01;69.06;100685.16;1265498;23;634;-75
2022/11/19 02:13:05;;;;;;;;;;;;;;;14.00;69.38;100681.63;1265635;23;615;-76
2022/11/19 02:13:56;;;;;;;;;;;;;;;13.99;68.93;100682.59;1264834;23;650;-76
2022/11/19 02:14:46;;;;;;;;;;;;;;;14.03;69.01;100686.75;1265774;23;618;-75
2022/11/19 02:15:36;;;;;;;;;;;;;;;14.04;68.75;100680.41;1265641;23;643;-75
2022/11/19 02:16:27;;;;;;;;;;;;;;;14.03;68.78;100680.53;1265687;23;727;-77
2022/11/19 02:17:17;;;;;;;;;;;;;;;14.02;68.82;100676.16;1265476;23;626;-76
2022/11/19 02:18:08;;;;;;;;;;;;;;;14.05;68.96;100675.91;1265606;23;630;-76
2022/11/19 02:18:58;;;;;;;;;;;;;;;14.00;69.48;100683.44;1260724;23;666;-77
2022/11/19 02:19:48;;;;;;;;;;;;;;;14.03;69.21;100680.53;1261824;23;590;-76
2022/11/19 02:20:39;;;;;;;;;;;;;;;14.00;69.29;100689.66;1262443;23;673;-75
2022/11/19 02:21:29;;;;;;;;;;;;;;;14.01;69.06;100686.00;1260895;23;637;-76
2022/11/19 02:22:20;;;;;;;;;;;;;;;13.98;69.20;100693.44;1265495;23;630;-76
2022/11/19 02:23:10;;;;;;;;;;;;;;;13.99;69.38;100693.31;1266363;23;629;-76
2022/11/19 02:24:01;;;;;;;;;;;;;;;14.00;69.38;100692.34;1265633;23;530;-76
2022/11/19 02:24:51;;;;;;;;;;;;;;;13.97;69.17;100694.44;1265903;23;602;-77
2022/11/19 02:25:42;;;;;;;;;;;;;;;13.99;69.27;100690.63;1265589;23;594;-77
2022/11/19 02:26:32;;;;;;;;;;;;;;;14.00;68.93;100686.13;1265789;23;634;-76
2022/11/19 02:27:22;;;;;;;;;;;;;;;14.02;68.95;100698.44;1267224;23;1928;-76
2022/11/19 02:28:13;;;;;;;;;;;;;;;13.98;68.78;100691.63;1265712;23;669;-77
2022/11/19 02:29:03;;;;;;;;;;;;;;;13.98;68.98;100693.44;1265499;23;614;-77
2022/11/19 02:29:54;;;;;;;;;;;;;;;13.97;69.08;100689.09;1265666;23;631;-76
2022/11/19 02:30:44;;;;;;;;;;;;;;;13.98;68.81;100694.28;1260894;23;689;-77
2022/11/19 02:31:34;;;;;;;;;;;;;;;13.94;68.67;100692.88;1257484;23;654;-76
2022/11/19 02:32:25;;;;;;;;;;;;;;;13.95;68.95;100688.34;1260872;23;645;-77
2022/11/19 02:33:15;;;;;;;;;;;;;;;13.99;68.86;100692.47;1267259;23;622;-77
2022/11/19 02:34:07;;;;;;;;;;;;;;;13.98;68.79;100693.44;1265615;23;638;-77
2022/11/19 02:34:58;;;;;;;;;;;;;;;13.97;68.73;100697.97;1260866;23;652;-77
2022/11/19 02:35:48;;;;;;;;;;;;;;;13.92;68.80;100702.00;1262791;23;672;-77
2022/11/19 02:36:39;;;;;;;;;;;;;;;13.92;69.03;100697.50;1267302;23;729;-78
2022/11/19 02:37:29;;;;;;;;;;;;;;;13.95;68.87;100702.59;1265793;23;669;-77
2022/11/19 02:38:19;;;;;;;;;;;;;;;13.99;69.23;100700.50;1265425;23;674;-77
2022/11/19 02:39:10;;;;;;;;;;;;;;;13.96;69.35;100698.97;1265640;23;642;-76
2022/11/19 02:40:00;;;;;;;;;;;;;;;13.92;68.99;100697.50;1265365;23;638;-76
2022/11/19 02:40:51;;;;;;;;;;;;;;;13.95;69.19;100701.75;1265616;23;654;-77
2022/11/19 02:41:41;;;;;;;;;;;;;;;13.94;69.00;100705.41;1260863;23;582;-77
2022/11/19 02:42:32;;;;;;;;;;;;;;;13.96;68.51;100704.31;1261848;23;633;-77
2022/11/19 02:43:22;;;;;;;;;;;;;;;13.93;69.41;100703.69;1267848;23;641;-77
2022/11/19 02:44:58;;;;;;;;;;;;;;;13.92;69.27;100708.22;1265485;23;615;-77
2022/11/19 02:45:23;;;;;;;;;;;;;;;13.91;68.86;100706.50;1262710;23;1151;-76
2022/11/19 02:46:13;;;;;;;;;;;;;;;13.88;68.90;100704.91;1267171;23;645;-76
2022/11/19 02:47:04;;;;;;;;;;;;;;;13.94;69.14;100711.63;1265764;23;722;-76
2022/11/19 02:47:54;;;;;;;;;;;;;;;13.96;69.00;100706.13;1265345;23;650;-75
2022/11/19 02:48:45;;;;;;;;;;;;;;;13.96;69.18;100701.63;1265620;23;601;-75
2022/11/19 02:49:35;;;;;;;;;;;;;;;13.94;68.76;100706.25;1265349;23;598;-75
2022/11/19 02:50:26;;;;;;;;;;;;;;;13.93;68.81;100701.88;1265583;23;571;-75
2022/11/19 02:51:16;;;;;;;;;;;;;;;13.93;68.78;100701.88;1265685;23;747;-76
2022/11/19 02:52:06;;;;;;;;;;;;;;;13.93;69.34;100704.56;1265497;23;642;-76
2022/11/19 02:52:57;;;;;;;;;;;;;;;13.95;69.24;100699.94;1265636;23;673;-75
2022/11/19 02:53:47;;;;;;;;;;;;;;;13.91;69.06;100703.81;1265310;23;626;-76
2022/11/19 02:54:38;;;;;;;;;;;;;;;13.92;69.05;100702.84;1265706;23;598;-76
2022/11/19 02:55:28;;;;;;;;;;;;;;;13.96;68.76;100703.47;1265779;23;702;-76
2022/11/19 02:56:19;;;;;;;;;;;;;;;13.98;68.71;100701.47;1265487;23;658;-75
2022/11/19 02:57:09;;;;;;;;;;;;;;;13.92;68.80;100704.69;1265416;23;753;-77
2022/11/19 02:58:00;;;;;;;;;;;;;;;13.88;69.27;100696.03;1265632;23;619;-76
2022/11/19 03:04:36;;;;;;;;;;;;;;;13.96;68.74;100701.63;1268108;23;598;-75
2022/11/19 03:05:26;;;;;;;;;;;;;;;13.93;68.81;100699.19;1265699;23;586;-74
2022/11/19 03:06:17;;;;;;;;;;;;;;;13.92;68.91;100702.84;1265396;23;595;-75
2022/11/19 03:07:07;;;;;;;;;;;;;;;13.88;69.00;100702.25;1264650;23;721;-76
2022/11/19 03:07:58;;;;;;;;;;;;;;;13.84;69.16;100691.91;1265598;23;627;-75
2022/11/19 03:08:48;;;;;;;;;;;;;;;13.85;69.16;100699.81;1265774;23;619;-76
2022/11/19 03:09:39;;;;;;;;;;;;;;;13.80;68.98;100691.28;1265638;23;599;-76
2022/11/19 03:10:29;;;;;;;;;;;;;;;13.85;69.06;100701.63;1265717;23;681;-76
2022/11/19 03:11:20;;;;;;;;;;;;;;;13.89;68.63;100703.09;1265328;23;622;-76
2022/11/19 03:12:10;;;;;;;;;;;;;;;13.85;69.56;100698.94;1264529;23;635;-76
2022/11/19 03:16:40;;;;;;;;;;;;;;;13.82;69.35;100701.88;1260793;23;686;-76
2022/11/19 03:16:41;;;;;;;;;;;;;;;13.85;69.61;100704.31;1268132;23;661;-76
2022/11/19 03:17:32;;;;;;;;;;;;;;;13.81;69.03;100710.88;1265436;23;630;-76
2022/11/19 03:18:22;;;;;;;;;;;;;;;13.78;69.63;100709.34;1260767;23;666;-76
2022/11/19 03:19:12;;;;;;;;;;;;;;;13.79;69.63;100712.88;1261537;23;644;-76
2022/11/19 03:20:03;;;;;;;;;;;;;;;13.82;69.12;100709.91;1267288;23;728;-76
2022/11/19 03:20:53;;;;;;;;;;;;;;;13.83;68.95;100708.94;1265230;23;657;-76
2022/11/19 03:21:44;;;;;;;;;;;;;;;13.87;68.59;100703.22;1264915;23;636;-77
2022/11/19 03:22:34;;;;;;;;;;;;;;;13.84;69.24;100706.13;1265696;23;607;-76
2022/11/19 03:23:24;;;;;;;;;;;;;;;13.83;68.82;100712.47;1260735;23;650;-76
2022/11/19 03:24:15;;;;;;;;;;;;;;;13.85;68.72;100715.03;1261639;23;641;-76
2022/11/19 03:25:05;;;;;;;;;;;;;;;13.85;68.52;100709.66;1267179;23;614;-76
2022/11/19 03:25:56;;;;;;;;;;;;;;;13.81;68.67;100709.06;1265436;23;623;-76
2022/11/19 03:26:46;;;;;;;;;;;;;;;13.82;68.78;100707.22;1265653;23;604;-77
2022/11/19 03:27:37;;;;;;;;;;;;;;;13.83;69.47;100714.28;1265374;23;1936;-76
2022/11/19 03:28:27;;;;;;;;;;;;;;;13.78;69.31;100713.84;1265734;23;634;-77
2022/11/19 03:29:17;;;;;;;;;;;;;;;13.84;69.12;100713.31;1265364;23;654;-76
2022/11/19 03:30:08;;;;;;;;;;;;;;;13.82;69.52;100717.94;1265571;23;650;-76
2022/11/19 03:30:59;;;;;;;;;;;;;;;13.85;68.86;100709.66;1265354;23;658;-77
2022/11/19 03:31:49;;;;;;;;;;;;;;;13.83;68.81;100716.97;1264912;23;631;-77
2022/11/19 03:32:40;;;;;;;;;;;;;;;13.81;69.08;100716.25;1265510;23;592;-76
2022/11/19 03:33:30;;;;;;;;;;;;;;;13.76;69.38;100713.09;1265479;23;666;-77
2022/11/19 03:34:20;;;;;;;;;;;;;;;13.75;68.87;100716.75;1265338;23;853;-77
2022/11/19 03:35:11;;;;;;;;;;;;;;;13.74;68.63;100715.06;1265488;23;634;-78
2022/11/19 03:36:01;;;;;;;;;;;;;;;13.74;68.98;100715.06;1265109;23;618;-77
2022/11/19 03:36:52;;;;;;;;;;;;;;;13.74;69.29;100709.69;1267220;23;622;-77
2022/11/19 03:37:42;;;;;;;;;;;;;;;13.75;68.88;100722.09;1265664;23;642;-76
2022/11/19 03:38:32;;;;;;;;;;;;;;;13.74;68.88;100717.72;1265523;23;654;-77
2022/11/19 03:39:23;;;;;;;;;;;;;;;13.75;68.72;100714.06;1265515;23;645;-76
2022/11/19 03:40:13;;;;;;;;;;;;;;;13.74;68.49;100715.91;1260858;23;661;-77
2022/11/19 03:41:04;;;;;;;;;;;;;;;13.76;69.15;100718.47;1261528;23;652;-77
2022/11/19 03:41:54;;;;;;;;;;;;;;;13.77;68.67;100720.16;1267991;23;565;-77
2022/11/19 03:42:45;;;;;;;;;;;;;;;13.79;68.75;100719.03;1265381;23;626;-77
2022/11/19 03:43:35;;;;;;;;;;;;;;;13.78;68.72;100721.88;1265654;23;637;-77
2022/11/19 03:44:25;;;;;;;;;;;;;;;13.78;68.73;100728.06;1265399;23;618;-77
2022/11/19 03:45:16;;;;;;;;;;;;;;;13.81;68.53;100721.59;1267274;23;660;-78
2022/11/19 03:46:06;;;;;;;;;;;;;;;13.78;68.44;100724.53;1265175;23;634;-77
2022/11/19 03:46:57;;;;;;;;;;;;;;;13.76;68.93;100723.81;1267179;23;642;-77
2022/11/19 03:47:47;;;;;;;;;;;;;;;13.75;69.07;100722.09;1265502;23;1873;-77
2022/11/19 03:48:38;;;;;;;;;;;;;;;13.75;68.73;100724.78;1267181;23;626;-77
2022/11/19 03:49:30;;;;;;;;;;;;;;;13.79;68.39;100723.56;1265619;23;681;-77
2022/11/19 03:50:20;;;;;;;;;;;;;;;13.79;69.05;100728.94;1263830;23;607;-75
2022/11/19 03:51:11;;;;;;;;;;;;;;;13.75;69.32;100720.28;1265438;23;623;-75
2022/11/19 03:52:01;;;;;;;;;;;;;;;13.75;69.11;100732.81;1265199;23;606;-76
2022/11/19 03:52:52;;;;;;;;;;;;;;;13.72;69.11;100730.38;1265445;23;796;-76
2022/11/19 03:53:42;;;;;;;;;;;;;;;13.76;69.46;100726.50;1265716;23;662;-76
2022/11/19 03:54:33;;;;;;;;;;;;;;;13.75;68.40;100720.28;1265568;23;612;-76
2022/11/19 03:55:23;;;;;;;;;;;;;;;13.75;68.72;100720.28;1265577;23;567;-76
2022/11/19 03:56:13;;;;;;;;;;;;;;;13.77;69.29;100730.88;1260721;23;638;-76
2022/11/19 03:57:04;;;;;;;;;;;;;;;13.78;69.03;100729.91;1261385;23;661;-76
2022/11/19 03:57:54;;;;;;;;;;;;;;;13.75;68.89;100730.16;1267131;23;661;-76
2022/11/19 03:58:45;;;;;;;;;;;;;;;13.74;68.58;100731.97;1265350;23;575;-77
2022/11/19 03:59:35;;;;;;;;;;;;;;;13.74;68.81;100731.13;1265572;23;590;-75
2022/11/19 04:00:26;;;;;;;;;;;;;;;13.73;68.96;100734.78;1265319;23;559;-76
2022/11/19 04:01:16;;;;;;;;;;;;;;;13.73;68.52;100734.78;1265676;23;579;-76
2022/11/19 04:02:06;;;;;;;;;;;;;;;13.70;68.75;100732.31;1265431;23;622;-76
2022/11/19 04:02:57;;;;;;;;;;;;;;;13.71;69.44;100740.25;1260793;23;669;-77
2022/11/19 04:04:56;;;;;;;;;;;;;;;13.69;68.83;100746.69;1266554;23;597;-76
2022/11/19 04:05:47;;;;;;;;;;;;;;;13.68;69.01;100745.84;1265410;23;638;-77
2022/11/19 04:06:37;;;;;;;;;;;;;;;13.69;68.94;100749.38;1265360;23;655;-77
2022/11/19 04:07:27;;;;;;;;;;;;;;;13.70;68.77;100753.75;1265378;23;1917;-77
2022/11/19 04:08:18;;;;;;;;;;;;;;;13.71;69.04;100748.28;1265522;23;682;-77
2022/11/19 04:09:08;;;;;;;;;;;;;;;13.74;69.00;100760.56;1266477;23;662;-77
2022/11/19 04:09:59;;;;;;;;;;;;;;;13.67;69.15;100759.34;1260608;23;589;-77
2022/11/19 04:10:49;;;;;;;;;;;;;;;13.69;68.67;100754.72;1261531;23;601;-76
2022/11/19 04:11:40;;;;;;;;;;;;;;;13.66;68.85;100755.81;1267834;23;539;-76
2022/11/19 04:12:30;;;;;;;;;;;;;;;13.66;68.82;100763.00;1265579;23;705;-76
2022/11/19 04:13:20;;;;;;;;;;;;;;;13.68;69.41;100763.72;1265246;23;748;-76
2022/11/19 04:14:11;;;;;;;;;;;;;;;13.69;68.93;100773.47;1265492;23;584;-76
2022/11/19 04:15:01;;;;;;;;;;;;;;;13.67;68.46;100778.09;1265557;23;646;-76
2022/11/19 04:15:52;;;;;;;;;;;;;;;13.67;68.47;100765.56;1265457;23;614;-77
2022/11/19 04:16:42;;;;;;;;;;;;;;;13.67;69.55;100783.44;1265608;23;587;-76
2022/11/19 04:17:33;;;;;;;;;;;;;;;13.66;68.87;100779.06;1265362;23;781;-77
2022/11/19 04:18:23;;;;;;;;;;;;;;;13.71;69.07;100785.78;1265545;23;619;-76
2022/11/19 04:19:14;;;;;;;;;;;;;;;13.69;69.18;100781.50;1266060;23;649;-77
2022/11/19 04:20:04;;;;;;;;;;;;;;;13.70;68.56;100781.38;1260730;23;626;-77
2022/11/19 04:20:55;;;;;;;;;;;;;;;13.68;68.41;100786.00;1261457;23;665;-77
2022/11/19 04:21:45;;;;;;;;;;;;;;;13.65;69.20;100790.75;1267179;23;672;-76
2022/11/19 04:22:36;;;;;;;;;;;;;;;13.65;68.87;100786.25;1265312;23;611;-75
2022/11/19 04:23:26;;;;;;;;;;;;;;;13.72;69.34;100791.97;1260755;23;669;-77
2022/11/19 04:24:16;;;;;;;;;;;;;;;13.75;68.91;100792.59;1261659;23;646;-77
2022/11/19 04:25:07;;;;;;;;;;;;;;;13.71;68.63;100790.28;1267142;23;641;-77
2022/11/19 04:25:57;;;;;;;;;;;;;;;13.68;68.65;100785.16;1265624;23;601;-78
2022/11/19 04:26:48;;;;;;;;;;;;;;;13.70;68.92;100788.56;1265349;23;658;-77
2022/11/19 04:27:38;;;;;;;;;;;;;;;13.72;69.12;100789.31;1265496;23;1920;-77
2022/11/19 04:28:28;;;;;;;;;;;;;;;13.70;69.20;100791.25;1265431;23;603;-77
2022/11/19 04:29:19;;;;;;;;;;;;;;;13.66;69.38;100792.44;1260688;23;661;-77
2022/11/19 04:30:09;;;;;;;;;;;;;;;13.66;69.17;100790.63;1261535;23;638;-77
2022/11/19 04:31:00;;;;;;;;;;;;;;;13.65;68.67;100791.59;1260495;23;580;-77
2022/11/19 04:31:50;;;;;;;;;;;;;;;13.63;68.85;100800.72;1260480;23;678;-76
2022/11/19 04:32:41;;;;;;;;;;;;;;;13.62;69.57;100799.00;1267030;23;646;-76
2022/11/19 04:33:31;;;;;;;;;;;;;;;13.61;68.92;100800.03;1260629;23;669;-76
2022/11/19 04:34:21;;;;;;;;;;;;;;;13.61;69.08;100795.50;1261731;23;606;-76
2022/11/19 04:35:13;;;;;;;;;;;;;;;13.65;69.13;100806.81;1267155;23;657;-75
2022/11/19 04:36:03;;;;;;;;;;;;;;;13.66;68.57;100792.44;1264664;23;627;-75
2022/11/19 04:36:53;;;;;;;;;;;;;;;13.63;68.86;100801.56;1260643;23;666;-76
2022/11/19 04:37:44;;;;;;;;;;;;;;;13.65;68.71;100807.66;1261571;23;610;-76
2022/11/19 04:38:34;;;;;;;;;;;;;;;13.65;69.14;100806.81;1265616;23;610;-76
2022/11/19 04:39:25;;;;;;;;;;;;;;;13.68;69.08;100798.53;1260726;23;650;-76
2022/11/19 04:40:16;;;;;;;;;;;;;;;13.67;68.57;100802.19;1254732;23;650;-76